Bulawayo, Zimbabwe
Current Conditions -  °F | °C
As of 3:00 PM on Thursday 30 Oct 2014 (Local Time) from FBFT Reporting Station
Clear Clear  
Wind Chill: 93°   Ceiling: Unl
Heat Index: 93°   Visibility: 6mi
Dew Point: 36°   Wind: 10mph
Humidity: 13%   Direction: 70°ENE
Pressure: 29.94"   Gusts: NA
Location:  20.17°S, 28.58°E
Report Text: FBFT 301300Z 07009KT CAVOK 34/02 Q1014
Loading
Personal Weather Stations






























Interactive Weather Map
Tropical Storm Tracking
New forecast layout! Learn more

10-Day Weather Forecast

Advertisements
Track Severe Weather on mobile